Time;durP1;ratioP1;P1;durP2;ratioP2;P2;SDS_P1;SDS_P2;PMS_P1;PMS_P2;Temp;Humidity;BMP_temperature;BMP_pressure;BME280_temperature;BME280_humidity;BME280_pressure;Samples;Min_cycle;Max_cycle;Signal;HPM_P1;HPM_P2
2021/09/22 00:01:16;;;;;;;0.40;0.40;;;22.40;71.10;;;;;;5122728;28;20030;-36
2021/09/22 00:03:42;;;;;;;0.40;0.40;;;22.40;71.00;;;;;;5122781;28;20028;-36
2021/09/22 00:06:09;;;;;;;0.40;0.40;;;22.40;70.60;;;;;;5123194;28;20031;-36
2021/09/22 00:08:35;;;;;;;0.45;0.45;;;22.40;70.50;;;;;;5126857;28;20038;-36
2021/09/22 00:11:01;;;;;;;0.52;0.52;;;22.40;70.50;;;;;;5106608;28;20050;-36
2021/09/22 00:13:27;;;;;;;0.50;0.40;;;22.40;70.40;;;;;;5115428;28;20040;-36
2021/09/22 00:15:53;;;;;;;0.30;0.30;;;22.40;70.50;;;;;;5126911;28;20027;-36
2021/09/22 00:18:20;;;;;;;0.50;0.50;;;22.50;70.50;;;;;;5126876;28;20043;-36
2021/09/22 00:20:46;;;;;;;0.90;0.50;;;22.50;70.50;;;;;;5126761;28;20054;-36
2021/09/22 00:23:12;;;;;;;0.50;0.50;;;22.50;70.50;;;;;;5126281;28;20027;-36
2021/09/22 00:25:38;;;;;;;0.40;0.40;;;22.50;70.60;;;;;;5128777;27;20159;-36
2021/09/22 00:28:05;;;;;;;0.40;0.40;;;22.50;70.60;;;;;;5126770;28;20027;-36
2021/09/22 00:30:31;;;;;;;0.40;0.40;;;22.50;70.70;;;;;;5126670;28;20095;-36
2021/09/22 00:33:00;;;;;;;0.85;0.40;;;22.50;71.20;;;;;;5126059;28;20032;-36
2021/09/22 00:35:26;;;;;;;1.75;0.35;;;22.50;71.40;;;;;;5126322;28;20035;-36
2021/09/22 00:37:53;;;;;;;0.40;0.40;;;22.60;71.30;;;;;;5108104;28;20042;-36
2021/09/22 00:40:20;;;;;;;0.60;0.50;;;22.60;71.50;;;;;;5109978;28;20028;-37
2021/09/22 00:42:46;;;;;;;0.43;0.43;;;22.60;71.50;;;;;;5106029;28;20028;-36
2021/09/22 00:45:13;;;;;;;0.57;0.50;;;22.60;71.70;;;;;;5118538;28;20023;-36
2021/09/22 00:47:39;;;;;;;0.50;0.50;;;22.60;71.60;;;;;;5126077;28;20027;-36
2021/09/22 00:50:06;;;;;;;0.50;0.47;;;22.60;71.40;;;;;;5125906;28;20027;-37
2021/09/22 00:52:32;;;;;;;0.45;0.45;;;22.60;71.40;;;;;;5126277;28;20031;-36
2021/09/22 00:54:59;;;;;;;0.97;0.60;;;22.60;71.40;;;;;;5125624;28;20028;-36
2021/09/22 00:57:25;;;;;;;0.30;0.30;;;22.60;71.30;;;;;;5126063;28;20047;-36
2021/09/22 00:59:51;;;;;;;0.47;0.47;;;22.60;71.20;;;;;;5125913;28;20020;-36
2021/09/22 01:02:17;;;;;;;0.73;0.35;;;22.60;71.10;;;;;;5125839;28;20031;-36
2021/09/22 01:04:43;;;;;;;0.70;0.40;;;22.60;71.10;;;;;;5125902;28;20027;-37
2021/09/22 01:07:11;;;;;;;2.40;0.60;;;22.70;71.30;;;;;;5125792;28;20034;-36
2021/09/22 01:09:38;;;;;;;0.40;0.40;;;22.70;71.30;;;;;;5134594;27;20027;-36
2021/09/22 01:12:05;;;;;;;0.20;0.20;;;22.60;71.30;;;;;;5146491;27;20031;-36
2021/09/22 01:14:31;;;;;;;1.08;0.50;;;22.70;71.30;;;;;;5138940;27;20570;-36
2021/09/22 01:16:57;;;;;;;0.40;0.40;;;22.70;71.50;;;;;;5125779;28;20070;-36
2021/09/22 01:19:23;;;;;;;0.43;0.43;;;22.70;71.70;;;;;;5123236;28;20111;-36
2021/09/22 01:21:51;;;;;;;2.30;0.40;;;22.70;71.70;;;;;;5125609;28;20043;-36
2021/09/22 01:24:19;;;;;;;0.60;0.50;;;22.70;71.90;;;;;;5125255;28;20292;-37
2021/09/22 01:26:46;;;;;;;1.17;0.55;;;22.70;71.90;;;;;;5125278;28;20058;-36
2021/09/22 01:29:13;;;;;;;0.80;0.40;;;22.70;71.90;;;;;;5125167;28;20027;-37
2021/09/22 01:31:40;;;;;;;0.73;0.40;;;22.70;71.80;;;;;;5107182;28;20103;-36
2021/09/22 01:34:07;;;;;;;1.95;0.40;;;22.70;71.70;;;;;;5125021;28;20490;-36
2021/09/22 01:36:33;;;;;;;;;;;22.70;71.60;;;;;;5125861;28;20059;-36
2021/09/22 01:38:59;;;;;;;1.45;0.30;;;22.70;71.50;;;;;;5125280;28;19914;-36
2021/09/22 01:41:25;;;;;;;0.57;0.47;;;22.70;71.70;;;;;;5125299;28;20039;-36
2021/09/22 01:43:51;;;;;;;1.60;0.40;;;22.70;71.70;;;;;;5123210;28;20028;-36
2021/09/22 01:46:18;;;;;;;1.20;0.40;;;22.70;71.60;;;;;;5104420;28;20024;-36
2021/09/22 01:48:44;;;;;;;0.73;0.57;;;22.70;71.60;;;;;;5104372;28;20030;-36
2021/09/22 01:51:10;;;;;;;1.17;0.40;;;22.70;71.50;;;;;;5120243;28;20160;-36
2021/09/22 01:53:36;;;;;;;0.50;0.40;;;22.80;71.60;;;;;;5125107;28;20059;-36
2021/09/22 01:56:03;;;;;;;0.40;0.40;;;22.80;71.70;;;;;;5124714;28;20025;-36
2021/09/22 01:58:29;;;;;;;0.47;0.30;;;22.80;71.70;;;;;;5124897;28;20024;-36
2021/09/22 02:00:58;;;;;;;0.50;0.50;;;22.70;71.80;;;;;;5124459;28;20023;-36
2021/09/22 02:03:24;;;;;;;0.40;0.40;;;22.70;71.80;;;;;;5124880;28;20069;-36
2021/09/22 02:05:50;;;;;;;0.50;0.50;;;22.80;71.90;;;;;;5124373;28;20019;-37
2021/09/22 02:08:16;;;;;;;0.47;0.47;;;22.80;71.80;;;;;;5124875;28;20612;-36
2021/09/22 02:10:43;;;;;;;0.95;0.50;;;22.80;71.90;;;;;;5142853;27;20038;-36
2021/09/22 02:13:09;;;;;;;0.40;0.40;;;22.80;71.80;;;;;;5126851;27;20019;-36
2021/09/22 02:15:35;;;;;;;0.30;0.30;;;22.80;71.80;;;;;;5128550;27;20053;-36
2021/09/22 02:18:01;;;;;;;0.75;0.57;;;22.80;71.70;;;;;;5124243;28;20036;-36
2021/09/22 02:20:27;;;;;;;1.38;0.60;;;22.80;71.70;;;;;;5124594;28;20026;-36
2021/09/22 02:22:54;;;;;;;0.32;0.32;;;22.80;71.60;;;;;;5124380;28;20027;-36
2021/09/22 02:25:20;;;;;;;0.40;0.38;;;22.80;71.70;;;;;;5124110;28;20016;-36
2021/09/22 02:27:46;;;;;;;0.60;0.50;;;22.80;71.60;;;;;;5129095;27;20493;-36
2021/09/22 02:30:15;;;;;;;1.23;0.40;;;22.80;71.70;;;;;;5143510;27;20140;-36
2021/09/22 02:32:42;;;;;;;0.95;0.40;;;22.80;71.80;;;;;;5144974;27;20153;-37
2021/09/22 02:35:09;;;;;;;0.60;0.60;;;22.80;71.70;;;;;;5126472;27;20110;-36
2021/09/22 02:37:35;;;;;;;0.40;0.40;;;22.80;71.80;;;;;;5144525;27;20038;-36
2021/09/22 02:40:02;;;;;;;0.83;0.50;;;22.80;71.80;;;;;;5132376;27;20023;-37
2021/09/22 02:42:28;;;;;;;;;;;22.80;71.90;;;;;;5124438;28;20027;-36
2021/09/22 02:44:54;;;;;;;0.60;0.40;;;22.80;71.80;;;;;;5113049;28;19908;-36
2021/09/22 02:47:20;;;;;;;1.70;0.50;;;22.80;72.00;;;;;;5103604;28;20036;-36
2021/09/22 02:49:46;;;;;;;0.70;0.43;;;22.80;72.00;;;;;;5103522;28;20036;-37
2021/09/22 02:52:13;;;;;;;0.50;0.50;;;22.80;72.10;;;;;;5103399;28;20083;-36
2021/09/22 02:54:39;;;;;;;0.50;0.50;;;22.80;72.10;;;;;;5103239;28;20020;-37
2021/09/22 02:57:06;;;;;;;0.40;0.40;;;22.80;71.90;;;;;;5103124;28;20097;-37
2021/09/22 02:59:32;;;;;;;0.40;0.40;;;22.80;72.00;;;;;;5103217;28;20522;-37
2021/09/22 03:01:58;;;;;;;0.40;0.40;;;22.80;71.90;;;;;;5103322;28;20555;-36
2021/09/22 03:04:24;;;;;;;0.33;0.33;;;22.80;71.90;;;;;;5103271;28;20080;-36
2021/09/22 03:06:50;;;;;;;0.73;0.40;;;22.80;71.90;;;;;;5103200;28;20180;-36
2021/09/22 03:09:17;;;;;;;1.02;0.50;;;22.80;72.00;;;;;;5109073;28;20024;-37
2021/09/22 03:11:43;;;;;;;1.00;0.55;;;22.80;72.00;;;;;;5106887;28;20024;-36
2021/09/22 03:14:09;;;;;;;3.00;0.50;;;22.80;72.00;;;;;;5111034;27;20015;-36
2021/09/22 03:16:35;;;;;;;0.60;0.60;;;22.80;72.10;;;;;;5125168;27;20500;-36
2021/09/22 03:19:02;;;;;;;0.82;0.60;;;22.80;72.20;;;;;;5143986;27;20805;-36
2021/09/22 03:21:28;;;;;;;0.65;0.47;;;22.80;72.10;;;;;;5125675;27;20015;-37
2021/09/22 03:23:54;;;;;;;0.40;0.40;;;22.80;72.10;;;;;;5143967;27;20035;-36
2021/09/22 03:26:21;;;;;;;1.30;0.40;;;22.80;72.00;;;;;;5143594;27;20031;-37
2021/09/22 03:28:47;;;;;;;0.60;0.60;;;22.80;72.00;;;;;;5143801;27;20026;-36
2021/09/22 03:31:13;;;;;;;0.50;0.50;;;22.80;72.00;;;;;;5143454;27;20035;-36
2021/09/22 03:33:40;;;;;;;0.50;0.50;;;22.80;72.10;;;;;;5143718;27;20095;-36
2021/09/22 03:36:06;;;;;;;0.45;0.35;;;22.80;72.00;;;;;;5143652;27;20031;-37
2021/09/22 03:38:32;;;;;;;0.40;0.40;;;22.80;71.90;;;;;;5143846;27;20037;-36
2021/09/22 03:40:58;;;;;;;0.40;0.40;;;22.80;71.80;;;;;;5122902;28;20031;-36
2021/09/22 03:43:27;;;;;;;0.50;0.40;;;22.80;72.00;;;;;;5104551;28;20055;-36
2021/09/22 03:45:53;;;;;;;0.85;0.52;;;22.80;72.00;;;;;;5122758;28;20020;-36
2021/09/22 03:48:20;;;;;;;0.60;0.30;;;22.80;72.10;;;;;;5122767;28;20031;-36
2021/09/22 03:50:48;;;;;;;0.82;0.40;;;22.80;72.10;;;;;;5122649;28;20055;-36
2021/09/22 03:53:16;;;;;;;0.73;0.50;;;22.80;72.10;;;;;;5122942;28;20024;-36
2021/09/22 03:55:43;;;;;;;0.50;0.50;;;22.80;72.00;;;;;;5122702;28;20392;-37
2021/09/22 03:58:10;;;;;;;0.47;0.40;;;22.80;72.10;;;;;;5122926;28;20044;-36
2021/09/22 04:00:36;;;;;;;1.00;0.40;;;22.80;72.10;;;;;;5122770;28;20023;-36
2021/09/22 04:03:03;;;;;;;0.60;0.50;;;22.80;72.00;;;;;;5122909;28;20023;-36
2021/09/22 04:05:29;;;;;;;0.73;0.55;;;22.80;72.00;;;;;;5108820;28;20024;-36
2021/09/22 04:07:55;;;;;;;0.93;0.40;;;22.80;72.00;;;;;;5102176;28;20843;-39
2021/09/22 04:10:21;;;;;;;0.43;0.43;;;22.80;72.00;;;;;;5102257;28;20028;-36
2021/09/22 04:12:47;;;;;;;0.50;0.50;;;22.80;72.00;;;;;;5102505;28;20032;-36
2021/09/22 04:15:14;;;;;;;0.57;0.45;;;22.80;72.00;;;;;;5102229;28;20093;-36
2021/09/22 04:17:40;;;;;;;0.60;0.60;;;22.80;71.90;;;;;;5102168;28;20036;-36
2021/09/22 04:20:06;;;;;;;1.50;0.60;;;22.80;71.90;;;;;;5102262;28;20488;-36
2021/09/22 04:22:33;;;;;;;0.50;0.40;;;22.80;71.80;;;;;;5102400;28;20105;-37
2021/09/22 04:24:59;;;;;;;1.42;0.50;;;22.80;71.80;;;;;;5102059;28;20071;-36
2021/09/22 04:27:25;;;;;;;0.68;0.68;;;22.80;71.90;;;;;;5101958;28;20031;-36
2021/09/22 04:29:51;;;;;;;2.47;0.57;;;22.80;71.80;;;;;;5102228;28;20028;-36
2021/09/22 04:32:18;;;;;;;0.60;0.40;;;22.80;71.90;;;;;;5102402;28;20028;-36
2021/09/22 04:34:44;;;;;;;0.43;0.40;;;22.80;71.90;;;;;;5127557;28;20024;-36
2021/09/22 04:37:11;;;;;;;0.50;0.40;;;22.80;71.90;;;;;;5122532;28;20048;-36
2021/09/22 04:39:37;;;;;;;0.43;0.43;;;22.80;72.00;;;;;;5131334;28;20753;-36
2021/09/22 04:42:03;;;;;;;0.52;0.50;;;22.80;72.00;;;;;;5143018;28;20048;-36
2021/09/22 04:44:29;;;;;;;1.03;0.50;;;22.80;72.00;;;;;;5142692;28;20027;-36
2021/09/22 04:46:55;;;;;;;0.73;0.57;;;22.80;72.00;;;;;;5142740;28;20024;-37
2021/09/22 04:49:22;;;;;;;0.52;0.50;;;22.80;72.10;;;;;;5142952;28;20031;-36
2021/09/22 04:51:48;;;;;;;0.50;0.50;;;22.80;72.10;;;;;;5142777;28;20054;-36
2021/09/22 04:54:14;;;;;;;0.85;0.47;;;22.80;72.10;;;;;;5145139;27;20380;-36
2021/09/22 04:56:40;;;;;;;1.15;0.40;;;22.80;72.10;;;;;;5146502;27;20042;-37
2021/09/22 04:59:06;;;;;;;1.33;0.60;;;22.80;72.10;;;;;;5146421;27;20034;-36
2021/09/22 05:01:32;;;;;;;0.55;0.50;;;22.80;72.00;;;;;;5137696;27;20447;-42
2021/09/22 05:03:58;;;;;;;0.82;0.50;;;22.80;71.80;;;;;;5126123;28;20049;-36
2021/09/22 05:06:25;;;;;;;0.50;0.40;;;22.80;71.80;;;;;;5126082;28;20035;-36
2021/09/22 05:08:51;;;;;;;0.50;0.50;;;22.80;72.00;;;;;;5123318;28;20020;-36
2021/09/22 05:11:17;;;;;;;0.50;0.45;;;22.80;71.90;;;;;;5105541;28;20086;-36
2021/09/22 05:13:43;;;;;;;2.58;0.50;;;22.80;71.90;;;;;;5105326;28;20024;-37
2021/09/22 05:16:09;;;;;;;0.73;0.47;;;22.80;72.00;;;;;;5105309;28;20033;-36
2021/09/22 05:18:35;;;;;;;1.40;0.35;;;22.80;72.00;;;;;;5105010;28;20039;-36
2021/09/22 05:21:02;;;;;;;0.52;0.30;;;22.80;72.10;;;;;;5104991;28;20552;-37
2021/09/22 05:23:28;;;;;;;0.52;0.50;;;22.80;72.00;;;;;;5105077;28;20031;-36
2021/09/22 05:25:54;;;;;;;1.48;0.40;;;22.80;72.00;;;;;;5105415;28;20012;-37
2021/09/22 05:28:20;;;;;;;0.60;0.60;;;22.80;72.00;;;;;;5104902;28;20028;-36
2021/09/22 05:30:46;;;;;;;1.13;0.40;;;22.70;71.90;;;;;;5105088;28;20077;-36
2021/09/22 05:33:12;;;;;;;0.50;0.40;;;22.80;71.90;;;;;;5105163;28;20058;-37
2021/09/22 05:35:39;;;;;;;0.37;0.37;;;22.70;71.90;;;;;;5119075;28;20023;-36
2021/09/22 05:38:05;;;;;;;1.27;0.50;;;22.80;72.00;;;;;;5124784;28;20294;-37
2021/09/22 05:40:32;;;;;;;0.43;0.43;;;22.80;72.00;;;;;;5141933;27;20066;-37
2021/09/22 05:42:58;;;;;;;1.10;0.57;;;22.80;71.90;;;;;;5145903;27;20403;-36
2021/09/22 05:45:24;;;;;;;0.40;0.40;;;22.80;71.90;;;;;;5127400;27;20086;-36
2021/09/22 05:47:51;;;;;;;0.20;0.20;;;22.70;71.90;;;;;;5145668;27;20023;-36
2021/09/22 05:50:17;;;;;;;2.05;0.50;;;22.80;71.90;;;;;;5143517;27;20030;-37
2021/09/22 05:52:43;;;;;;;0.93;0.55;;;22.80;72.30;;;;;;5125369;28;20028;-36
2021/09/22 05:55:09;;;;;;;0.40;0.40;;;22.70;72.30;;;;;;5124939;28;20097;-36
2021/09/22 05:57:35;;;;;;;1.03;0.57;;;22.80;72.40;;;;;;5124626;28;20046;-36
2021/09/22 06:00:03;;;;;;;0.43;0.43;;;22.80;72.60;;;;;;5124926;28;20072;-38
2021/09/22 06:02:30;;;;;;;1.55;0.50;;;22.80;72.80;;;;;;5105038;28;20047;-38
2021/09/22 06:04:56;;;;;;;1.05;0.50;;;22.80;72.70;;;;;;5112376;28;20016;-37
2021/09/22 06:07:22;;;;;;;0.40;0.40;;;22.80;72.40;;;;;;5124666;28;20034;-37
2021/09/22 06:09:48;;;;;;;0.50;0.50;;;22.70;72.10;;;;;;5114385;28;20060;-37
2021/09/22 06:12:14;;;;;;;1.00;0.40;;;22.70;72.00;;;;;;5104230;28;20485;-37
2021/09/22 06:14:40;;;;;;;0.50;0.50;;;22.80;72.10;;;;;;5103879;28;20027;-37
2021/09/22 06:17:06;;;;;;;0.95;0.47;;;22.80;72.10;;;;;;5104169;28;20150;-37
2021/09/22 06:19:33;;;;;;;0.47;0.40;;;22.80;72.10;;;;;;5103739;28;20045;-37
2021/09/22 06:21:59;;;;;;;0.98;0.57;;;22.80;72.00;;;;;;5103949;28;20123;-37
2021/09/22 06:24:25;;;;;;;0.50;0.50;;;22.70;72.00;;;;;;5104062;28;20034;-38
2021/09/22 06:26:52;;;;;;;0.40;0.40;;;22.80;72.00;;;;;;5104028;28;20666;-36
2021/09/22 06:29:18;;;;;;;0.30;0.30;;;22.80;72.00;;;;;;5103677;28;20024;-37
2021/09/22 06:31:44;;;;;;;3.07;0.90;;;22.70;72.00;;;;;;5103753;28;20028;-37
2021/09/22 06:34:10;;;;;;;0.60;0.60;;;22.70;72.10;;;;;;5107633;27;20050;-38
2021/09/22 06:36:37;;;;;;;0.40;0.40;;;22.80;72.20;;;;;;5144692;27;20031;-37
2021/09/22 06:39:05;;;;;;;0.57;0.57;;;22.70;72.10;;;;;;5136991;27;20090;-38
2021/09/22 06:41:33;;;;;;;0.65;0.50;;;22.80;72.10;;;;;;5124252;28;20025;-37
2021/09/22 06:44:00;;;;;;;0.40;0.40;;;22.80;72.10;;;;;;5124002;28;20408;-38
2021/09/22 06:46:26;;;;;;;0.50;0.50;;;22.70;72.00;;;;;;5124104;28;20453;-37
2021/09/22 06:48:52;;;;;;;0.50;0.50;;;22.80;72.00;;;;;;5123701;28;20042;-39
2021/09/22 06:51:19;;;;;;;0.55;0.47;;;22.80;72.00;;;;;;5123653;28;20131;-37
2021/09/22 06:53:45;;;;;;;0.50;0.50;;;22.70;72.00;;;;;;5105607;28;20091;-38
2021/09/22 06:56:12;;;;;;;0.22;0.22;;;22.80;72.10;;;;;;5123772;28;20027;-37
2021/09/22 06:58:38;;;;;;;0.53;0.50;;;22.80;72.10;;;;;;5123518;28;20024;-37
2021/09/22 07:01:04;;;;;;;0.63;0.57;;;22.80;72.90;;;;;;5123897;28;20105;-37
2021/09/22 07:03:30;;;;;;;0.43;0.40;;;22.80;72.10;;;;;;5123763;28;20077;-37
2021/09/22 07:05:56;;;;;;;0.63;0.50;;;22.70;72.10;;;;;;5140521;27;20023;-38
2021/09/22 07:08:23;;;;;;;1.00;0.40;;;22.80;72.10;;;;;;5143838;27;20023;-37
2021/09/22 07:10:50;;;;;;;0.32;0.32;;;22.70;71.90;;;;;;5122240;27;20091;-37
2021/09/22 07:13:16;;;;;;;0.60;0.50;;;22.70;71.90;;;;;;5123690;28;20078;-38
2021/09/22 07:15:42;;;;;;;0.57;0.55;;;22.80;72.10;;;;;;5122906;28;20264;-37
2021/09/22 07:18:09;;;;;;;0.60;0.40;;;22.80;72.10;;;;;;5123263;28;20031;-37
2021/09/22 07:20:36;;;;;;;0.50;0.50;;;22.80;72.10;;;;;;5123007;28;20516;-37
2021/09/22 07:23:02;;;;;;;0.57;0.52;;;22.80;72.20;;;;;;5123350;28;20103;-35
2021/09/22 07:25:28;;;;;;;1.13;0.43;;;22.80;72.20;;;;;;5123174;28;20023;-35
2021/09/22 07:27:54;;;;;;;0.50;0.50;;;22.70;72.10;;;;;;5123219;28;20024;-36
2021/09/22 07:30:20;;;;;;;0.60;0.60;;;22.70;72.00;;;;;;5122959;28;20040;-38
2021/09/22 07:32:48;;;;;;;0.60;0.60;;;22.80;72.10;;;;;;5123411;28;20028;-36
2021/09/22 07:35:15;;;;;;;0.50;0.50;;;22.80;72.20;;;;;;5134206;27;20023;-36
2021/09/22 07:37:41;;;;;;;0.40;0.40;;;22.80;72.20;;;;;;5143729;27;20042;-36
2021/09/22 07:40:08;;;;;;;0.77;0.60;;;22.70;72.10;;;;;;5130440;27;20515;-36
2021/09/22 07:42:35;;;;;;;0.50;0.40;;;22.70;72.10;;;;;;5123251;28;20028;-36
2021/09/22 07:45:01;;;;;;;1.02;0.43;;;22.80;72.20;;;;;;5104267;28;20031;-36
2021/09/22 07:47:27;;;;;;;0.95;0.50;;;22.80;72.20;;;;;;5123073;28;20023;-36
2021/09/22 07:49:53;;;;;;;1.77;0.50;;;22.80;72.20;;;;;;5122761;28;20016;-41
2021/09/22 07:52:19;;;;;;;0.93;0.45;;;22.80;72.20;;;;;;5122950;28;20074;-36
2021/09/22 07:54:46;;;;;;;0.40;0.40;;;22.80;72.10;;;;;;5123061;28;20028;-36
2021/09/22 07:57:12;;;;;;;0.60;0.57;;;22.80;72.20;;;;;;5104325;28;20491;-36
2021/09/22 07:59:38;;;;;;;0.40;0.40;;;22.80;72.20;;;;;;5122718;28;20118;-36
2021/09/22 08:02:05;;;;;;;0.60;0.60;;;22.70;72.00;;;;;;5122476;28;20023;-36
2021/09/22 08:04:31;;;;;;;0.60;0.53;;;22.80;72.20;;;;;;5087702;28;20061;-36
2021/09/22 08:06:58;;;;;;;0.43;0.43;;;22.70;72.10;;;;;;5104570;28;20260;-36
2021/09/22 08:09:25;;;;;;;0.60;0.60;;;22.80;72.10;;;;;;5129507;28;20035;-36
2021/09/22 08:11:52;;;;;;;0.50;0.50;;;22.80;72.10;;;;;;5143481;28;20051;-36
2021/09/22 08:14:18;;;;;;;0.50;0.40;;;22.80;72.10;;;;;;5125026;28;20058;-36
2021/09/22 08:16:45;;;;;;;1.42;0.60;;;22.80;72.20;;;;;;5143126;28;20027;-36
2021/09/22 08:19:12;;;;;;;0.50;0.50;;;22.80;72.30;;;;;;5142896;28;20058;-36
2021/09/22 08:21:38;;;;;;;0.43;0.43;;;22.70;72.20;;;;;;5143082;28;20027;-36
2021/09/22 08:24:05;;;;;;;0.60;0.60;;;22.70;72.30;;;;;;5143089;28;20031;-36
2021/09/22 08:26:31;;;;;;;0.40;0.40;;;22.80;72.40;;;;;;5143338;28;20027;-36
2021/09/22 08:28:57;;;;;;;0.50;0.50;;;22.80;72.40;;;;;;5146897;27;20091;-36
2021/09/22 08:31:23;;;;;;;0.60;0.60;;;22.70;72.30;;;;;;5147005;27;20092;-36
2021/09/22 08:33:50;;;;;;;0.57;0.43;;;22.80;72.30;;;;;;5134295;27;20026;-36
2021/09/22 08:36:16;;;;;;;0.60;0.60;;;22.80;72.20;;;;;;5145944;27;20039;-36
2021/09/22 08:38:42;;;;;;;0.40;0.40;;;22.80;72.20;;;;;;5146148;27;20030;-36
2021/09/22 08:41:08;;;;;;;0.50;0.50;;;22.80;72.20;;;;;;5126212;28;20032;-36
2021/09/22 08:43:34;;;;;;;0.50;0.50;;;22.70;72.20;;;;;;5126488;28;20051;-36
2021/09/22 08:46:00;;;;;;;0.55;0.55;;;22.80;72.30;;;;;;5126329;28;20057;-36
2021/09/22 08:48:27;;;;;;;1.20;0.50;;;22.80;72.30;;;;;;5126473;28;20043;-36
2021/09/22 08:50:54;;;;;;;0.63;0.50;;;22.80;72.20;;;;;;5125932;28;20036;-37
2021/09/22 08:53:21;;;;;;;0.70;0.60;;;22.70;72.20;;;;;;5126294;28;20027;-37
2021/09/22 08:55:47;;;;;;;0.50;0.50;;;22.80;72.30;;;;;;5125892;28;20038;-36
2021/09/22 08:58:13;;;;;;;0.60;0.60;;;22.80;72.30;;;;;;5126346;28;20038;-37
2021/09/22 09:00:40;;;;;;;0.90;0.60;;;22.80;72.40;;;;;;5126015;28;20047;-36
2021/09/22 09:03:06;;;;;;;0.68;0.63;;;22.80;72.40;;;;;;5123851;28;20027;-36
2021/09/22 09:05:32;;;;;;;0.43;0.40;;;22.80;72.40;;;;;;5119133;28;20053;-37
2021/09/22 09:07:59;;;;;;;0.63;0.55;;;22.80;72.50;;;;;;5125999;28;20494;-37
2021/09/22 09:10:33;;;;;;;0.50;0.50;;;22.80;72.40;;;;;;5110306;28;20532;-36
2021/09/22 09:13:04;;;;;;;0.73;0.60;;;22.80;72.40;;;;;;5105108;28;20020;-36
2021/09/22 09:15:34;;;;;;;0.50;0.40;;;22.80;72.40;;;;;;5105487;28;20766;-37
2021/09/22 09:18:02;;;;;;;0.95;0.60;;;22.80;72.30;;;;;;5104060;28;20044;-37
2021/09/22 09:20:29;;;;;;;0.65;0.50;;;22.80;72.30;;;;;;5105082;28;20476;-37
2021/09/22 09:23:01;;;;;;;0.47;0.47;;;22.80;72.30;;;;;;5105543;28;20121;-37
2021/09/22 09:25:28;;;;;;;0.90;0.60;;;22.80;72.30;;;;;;5105018;28;20024;-37
2021/09/22 09:27:54;;;;;;;0.40;0.40;;;22.80;72.30;;;;;;5104980;28;20092;-37
2021/09/22 09:30:23;;;;;;;0.73;0.50;;;22.80;72.30;;;;;;5104544;28;20055;-37
2021/09/22 09:32:49;;;;;;;0.40;0.40;;;22.70;72.30;;;;;;5105251;28;20262;-36
2021/09/22 09:35:18;;;;;;;0.70;0.60;;;22.80;72.30;;;;;;5127086;27;20038;-37
2021/09/22 09:37:54;;;;;;;0.90;0.63;;;22.80;72.40;;;;;;5127660;27;20063;-37
2021/09/22 09:40:28;;;;;;;0.65;0.60;;;22.80;72.50;;;;;;5130031;27;20035;-37
2021/09/22 09:43:08;;;;;;;0.60;0.60;;;22.80;72.60;;;;;;5125025;28;20034;-37
2021/09/22 09:45:35;;;;;;;0.70;0.50;;;22.80;72.60;;;;;;5125300;28;20023;-37
2021/09/22 09:48:06;;;;;;;0.40;0.40;;;22.80;72.50;;;;;;5125297;28;20536;-37
2021/09/22 09:50:39;;;;;;;0.73;0.70;;;22.80;72.60;;;;;;5124615;28;20079;-37
2021/09/22 09:53:05;;;;;;;0.60;0.57;;;22.80;72.50;;;;;;5125261;28;20023;-37
2021/09/22 09:55:33;;;;;;;0.47;0.45;;;22.80;72.50;;;;;;5125074;28;20072;-37
2021/09/22 09:57:59;;;;;;;0.60;0.60;;;22.80;72.50;;;;;;5124887;28;20748;-37
2021/09/22 10:00:46;;;;;;;0.53;0.53;;;22.80;72.50;;;;;;5125055;28;20024;-37
2021/09/22 10:03:21;;;;;;;0.85;0.70;;;22.80;72.40;;;;;;5124920;28;20095;-37
2021/09/22 10:05:48;;;;;;;0.52;0.52;;;22.80;72.40;;;;;;5140023;27;20492;-36
2021/09/22 10:08:15;;;;;;;0.60;0.50;;;22.80;72.40;;;;;;5124739;27;20046;-36
2021/09/22 10:10:43;;;;;;;0.50;0.50;;;22.80;72.40;;;;;;5142916;27;20031;-37
2021/09/22 10:13:10;;;;;;;0.55;0.55;;;22.80;72.40;;;;;;5126704;27;20023;-37
2021/09/22 10:15:39;;;;;;;0.55;0.55;;;22.80;72.40;;;;;;5145254;27;20054;-37
2021/09/22 10:18:05;;;;;;;0.60;0.55;;;22.80;72.50;;;;;;5145148;27;20078;-37
2021/09/22 10:20:31;;;;;;;0.50;0.50;;;22.80;72.50;;;;;;5126941;27;20069;-37
2021/09/22 10:22:59;;;;;;;0.68;0.55;;;22.70;72.60;;;;;;5126030;27;20034;-37
2021/09/22 10:25:25;;;;;;;1.00;0.63;;;22.80;72.70;;;;;;5145034;27;20027;-37
2021/09/22 10:27:51;;;;;;;0.63;0.60;;;22.80;72.60;;;;;;5126731;27;20051;-37
2021/09/22 10:30:17;;;;;;;0.80;0.60;;;22.80;72.60;;;;;;5145041;27;20555;-37
2021/09/22 10:32:45;;;;;;;0.73;0.55;;;22.80;72.50;;;;;;5126328;27;20391;-37
2021/09/22 10:35:27;;;;;;;1.30;0.75;;;22.80;72.50;;;;;;5134269;27;20032;-36
2021/09/22 10:37:54;;;;;;;0.68;0.50;;;22.80;72.50;;;;;;5124109;28;20062;-36
2021/09/22 10:40:40;;;;;;;1.23;0.70;;;22.80;72.50;;;;;;5126115;27;20026;-37
2021/09/22 10:43:16;;;;;;;0.85;0.73;;;22.80;72.50;;;;;;5109405;28;20128;-36
2021/09/22 10:45:43;;;;;;;0.70;0.50;;;22.80;72.50;;;;;;5124190;28;20024;-36
2021/09/22 10:48:16;;;;;;;1.13;0.68;;;22.80;72.50;;;;;;5123964;28;20030;-37
2021/09/22 10:50:42;;;;;;;0.80;0.60;;;22.80;72.50;;;;;;5122842;28;20575;-37
2021/09/22 10:53:36;;;;;;;0.60;0.60;;;22.80;72.50;;;;;;5123506;28;20118;-37
2021/09/22 10:56:15;;;;;;;0.50;0.50;;;22.80;72.50;;;;;;5123625;28;20028;-37
2021/09/22 10:58:50;;;;;;;2.28;0.75;;;22.80;72.70;;;;;;5105788;28;20096;-36
2021/09/22 11:01:32;;;;;;;0.68;0.60;;;22.80;72.60;;;;;;5123552;28;20053;-37
2021/09/22 11:04:08;;;;;;;1.00;0.70;;;22.80;72.70;;;;;;5123611;27;20031;-37
2021/09/22 11:06:47;;;;;;;0.70;0.70;;;22.80;72.80;;;;;;5112293;27;20051;-37
2021/09/22 11:09:24;;;;;;;0.80;0.70;;;22.80;72.80;;;;;;5108342;28;20053;-37
2021/09/22 11:11:56;;;;;;;0.60;0.60;;;22.80;72.70;;;;;;5123815;28;20019;-37
2021/09/22 11:14:41;;;;;;;1.30;0.68;;;22.80;72.70;;;;;;5123129;28;20031;-37
2021/09/22 11:17:26;;;;;;;2.35;0.82;;;22.80;72.80;;;;;;5123144;28;20044;-37
2021/09/22 11:19:53;;;;;;;1.08;0.75;;;22.80;72.70;;;;;;5123413;28;20020;-37
2021/09/22 11:22:22;;;;;;;0.60;0.60;;;22.80;72.70;;;;;;5122997;28;20027;-37
2021/09/22 11:24:48;;;;;;;0.60;0.60;;;22.80;72.70;;;;;;5123208;28;20031;-36
2021/09/22 11:27:19;;;;;;;0.68;0.68;;;22.80;72.60;;;;;;5123289;28;20051;-37
2021/09/22 11:29:58;;;;;;;0.75;0.68;;;22.80;72.60;;;;;;5123125;28;20106;-36
2021/09/22 11:32:43;;;;;;;0.60;0.55;;;22.80;72.50;;;;;;5122945;28;20024;-37
2021/09/22 11:35:13;;;;;;;0.88;0.60;;;22.80;72.60;;;;;;5133200;27;20475;-37
2021/09/22 11:37:52;;;;;;;0.68;0.68;;;22.80;72.70;;;;;;5143558;27;20043;-37
2021/09/22 11:40:20;;;;;;;0.60;0.60;;;22.80;72.80;;;;;;5128699;27;20089;-37
2021/09/22 11:43:06;;;;;;;0.93;0.73;;;22.80;72.80;;;;;;5122870;28;20457;-37
2021/09/22 11:45:37;;;;;;;0.70;0.65;;;22.80;72.90;;;;;;5115798;28;20079;-36
2021/09/22 11:48:04;;;;;;;0.60;0.60;;;22.80;72.90;;;;;;5123153;28;20057;-37
2021/09/22 11:50:38;;;;;;;0.68;0.68;;;22.80;72.90;;;;;;5087715;28;20064;-37
2021/09/22 11:53:12;;;;;;;0.70;0.70;;;22.80;73.00;;;;;;5122565;28;20048;-36
2021/09/22 11:55:38;;;;;;;0.73;0.73;;;22.80;72.80;;;;;;5122731;28;20028;-36
2021/09/22 11:58:09;;;;;;;0.90;0.80;;;22.80;72.80;;;;;;5122305;28;20032;-37
2021/09/22 12:00:35;;;;;;;0.60;0.60;;;22.80;72.80;;;;;;5122599;28;20485;-37
2021/09/22 12:03:06;;;;;;;0.87;0.63;;;22.80;72.70;;;;;;5126912;28;20035;-36
2021/09/22 12:05:32;;;;;;;1.10;1.00;;;22.80;72.70;;;;;;5129298;28;20028;-37
2021/09/22 12:07:58;;;;;;;0.90;0.60;;;22.80;72.80;;;;;;5129184;28;20043;-37
2021/09/22 12:10:24;;;;;;;0.88;0.82;;;22.80;72.80;;;;;;5129637;28;20028;-37
2021/09/22 12:12:51;;;;;;;0.80;0.80;;;22.80;72.80;;;;;;5110933;28;20055;-37
2021/09/22 12:15:17;;;;;;;0.60;0.60;;;22.80;72.80;;;;;;5129306;28;20260;-37
2021/09/22 12:17:43;;;;;;;0.50;0.50;;;22.80;72.80;;;;;;5129481;28;20042;-37
2021/09/22 12:20:19;;;;;;;0.70;0.70;;;22.80;72.90;;;;;;5129414;28;20260;-37
2021/09/22 12:23:06;;;;;;;0.88;0.60;;;22.80;73.00;;;;;;5110903;28;20058;-37
2021/09/22 12:25:33;;;;;;;0.90;0.70;;;22.80;73.00;;;;;;5128566;28;20027;-37
2021/09/22 12:28:00;;;;;;;0.77;0.77;;;22.80;73.00;;;;;;5129163;28;20068;-37
2021/09/22 12:30:37;;;;;;;0.88;0.80;;;22.80;73.00;;;;;;5110841;28;20080;-36
2021/09/22 12:33:08;;;;;;;0.63;0.60;;;22.80;72.80;;;;;;5129305;28;20024;-36
2021/09/22 12:35:35;;;;;;;0.77;0.77;;;22.80;72.90;;;;;;5142788;27;20019;-36
2021/09/22 12:38:06;;;;;;;0.73;0.73;;;22.80;72.90;;;;;;5149630;27;20043;-37
2021/09/22 12:40:35;;;;;;;0.60;0.60;;;22.80;72.90;;;;;;5133380;27;20028;-41
2021/09/22 12:43:03;;;;;;;0.65;0.65;;;22.80;72.90;;;;;;5129148;27;20030;-37
2021/09/22 12:45:31;;;;;;;0.80;0.63;;;22.80;72.90;;;;;;5143254;27;20038;-36
2021/09/22 12:48:07;;;;;;;0.70;0.70;;;22.80;72.90;;;;;;5149606;27;20037;-36
2021/09/22 12:50:38;;;;;;;0.85;0.85;;;22.80;72.90;;;;;;5149565;27;20046;-37